createdAt,value
2022-08-10T00:02:34.527Z,102358.09
2022-08-10T00:05:05.921Z,102319.97
2022-08-10T00:07:51.784Z,102328.31
2022-08-10T00:10:26.716Z,102334.69
2022-08-10T00:13:01.802Z,102343.34
2022-08-10T00:15:52.511Z,102329.53
2022-08-10T00:18:35.907Z,102356.66
2022-08-10T00:21:16.351Z,102341.66
2022-08-10T00:24:01.617Z,102315.78
2022-08-10T00:27:57.933Z,102348.69
2022-08-10T00:29:43.817Z,102342.94
2022-08-10T00:32:13.673Z,102349.00
2022-08-10T00:34:56.333Z,102328.50
2022-08-10T00:37:34.280Z,102340.34
2022-08-10T00:40:05.526Z,102314.81
2022-08-10T00:43:01.636Z,102336.53
2022-08-10T00:45:32.328Z,102343.69
2022-08-10T00:48:05.091Z,102338.66
2022-08-10T00:50:59.730Z,102322.25
2022-08-10T00:53:34.537Z,102346.69
2022-08-10T00:56:35.118Z,102320.41
2022-08-10T00:59:09.445Z,102330.19
2022-08-10T01:02:08.538Z,102315.22
2022-08-10T01:05:00.081Z,102334.09
2022-08-10T01:07:46.143Z,102328.16
2022-08-10T01:10:32.412Z,102304.50
2022-08-10T01:13:11.577Z,102324.06
2022-08-10T01:15:59.230Z,102338.28
2022-08-10T01:18:40.821Z,102337.38
2022-08-10T01:21:57.225Z,102330.00
2022-08-10T01:25:02.897Z,102317.06
2022-08-10T01:27:38.450Z,102296.00
2022-08-10T01:30:10.622Z,102308.09
2022-08-10T01:32:58.472Z,102320.94
2022-08-10T01:35:38.730Z,102292.19
2022-08-10T01:38:12.363Z,102306.53
2022-08-10T01:40:47.117Z,102295.53
2022-08-10T01:43:21.081Z,102302.84
2022-08-10T01:45:54.993Z,102305.31
2022-08-10T01:48:32.562Z,102298.72
2022-08-10T01:51:08.838Z,102293.97
2022-08-10T01:53:41.870Z,102295.94
2022-08-10T01:56:13.670Z,102330.34
2022-08-10T01:58:45.386Z,102302.53
2022-08-10T02:01:25.045Z,102330.00
2022-08-10T02:04:03.609Z,102303.19
2022-08-10T02:06:38.580Z,102298.41
2022-08-10T02:09:21.400Z,102283.25
2022-08-10T02:12:08.543Z,102307.56
2022-08-10T02:14:46.825Z,102296.44
2022-08-10T02:17:59.989Z,102308.69
2022-08-10T02:20:17.289Z,102295.09
2022-08-10T02:22:52.153Z,102313.03
2022-08-10T02:25:39.896Z,102271.66
2022-08-10T02:28:27.382Z,102285.72
2022-08-10T02:31:06.088Z,102266.88
2022-08-10T02:33:39.539Z,102271.53
2022-08-10T02:36:31.011Z,102274.13
2022-08-10T02:39:05.532Z,102294.19
2022-08-10T02:45:01.911Z,102267.00
2022-08-10T02:45:20.243Z,102294.63
2022-08-10T02:47:51.567Z,102264.09
2022-08-10T02:50:26.921Z,102289.28
2022-08-10T02:53:02.879Z,102286.00
2022-08-10T02:55:39.140Z,102287.59
2022-08-10T02:58:18.271Z,102274.41
2022-08-10T03:00:49.867Z,102277.38
2022-08-10T03:03:22.065Z,102278.97
2022-08-10T03:05:55.796Z,102256.59
2022-08-10T03:08:27.254Z,102243.84
2022-08-10T03:10:57.791Z,102250.28
2022-08-10T03:13:27.673Z,102271.50
2022-08-10T03:15:57.407Z,102256.25
2022-08-10T03:18:27.337Z,102273.91
2022-08-10T03:21:00.794Z,102268.19
2022-08-10T03:23:30.825Z,102243.94
2022-08-10T03:26:01.141Z,102252.91
2022-08-10T03:28:31.683Z,102255.69
2022-08-10T03:31:02.716Z,102272.06
2022-08-10T03:33:33.547Z,102221.81
2022-08-10T03:36:40.144Z,102232.97
2022-08-10T03:38:53.546Z,102261.69
2022-08-10T03:41:30.824Z,102240.47
2022-08-10T03:44:06.075Z,102237.91
2022-08-10T03:46:37.033Z,102224.63
2022-08-10T03:49:07.184Z,102244.19
2022-08-10T03:51:38.016Z,102213.13
2022-08-10T03:54:11.199Z,102239.28
2022-08-10T03:56:42.062Z,102231.31
2022-08-10T03:59:12.731Z,102221.25
2022-08-10T04:02:46.986Z,102231.72
2022-08-10T04:04:30.267Z,102241.28
2022-08-10T04:07:06.657Z,102208.34
2022-08-10T04:09:53.680Z,102231.44
2022-08-10T04:12:24.073Z,102232.25
2022-08-10T04:14:54.021Z,102212.94
2022-08-10T04:18:03.409Z,102221.22
2022-08-10T04:20:19.628Z,102226.69
2022-08-10T04:22:52.946Z,102223.84
2022-08-10T04:25:25.415Z,102204.69
2022-08-10T04:27:54.801Z,102223.25
2022-08-10T04:30:23.099Z,102180.50
2022-08-10T04:32:55.291Z,102189.56
2022-08-10T04:35:25.104Z,102196.81
2022-08-10T04:37:56.533Z,102207.91
2022-08-10T04:40:29.967Z,102180.72
2022-08-10T04:43:12.251Z,102176.06
2022-08-10T04:45:47.547Z,102181.03
2022-08-10T04:48:43.249Z,102175.03
2022-08-10T04:51:04.583Z,102159.13
2022-08-10T04:54:04.411Z,102165.78
2022-08-10T04:56:31.758Z,102185.47
2022-08-10T04:59:01.021Z,102151.31
2022-08-10T05:02:12.504Z,102167.16
2022-08-10T05:04:36.054Z,102178.47
2022-08-10T05:07:08.560Z,102183.56
2022-08-10T05:10:03.210Z,102164.41
2022-08-10T05:12:30.185Z,102170.19
2022-08-10T05:14:58.593Z,102167.22
2022-08-10T05:17:28.712Z,102166.91
2022-08-10T05:20:03.569Z,102156.50
2022-08-10T05:22:37.040Z,102166.56
2022-08-10T05:25:09.023Z,102145.94
2022-08-10T05:27:39.915Z,102178.19
2022-08-10T05:30:09.620Z,102163.81
2022-08-10T05:32:57.472Z,102140.72
2022-08-10T05:35:27.652Z,102148.03
2022-08-10T05:38:10.741Z,102140.59
2022-08-10T05:40:47.696Z,102137.81
2022-08-10T05:43:19.530Z,102147.31
2022-08-10T05:46:17.005Z,102156.38
2022-08-10T05:48:57.046Z,102138.41
2022-08-10T05:51:27.771Z,102121.63
2022-08-10T05:54:00.959Z,102138.56
2022-08-10T05:56:55.249Z,102159.28
2022-08-10T06:00:29.306Z,102150.31
2022-08-10T06:02:33.987Z,102139.78
2022-08-10T06:05:07.291Z,102139.78
2022-08-10T06:07:38.485Z,102135.50
2022-08-10T06:10:31.215Z,102119.84
2022-08-10T06:13:27.047Z,102117.78
2022-08-10T06:16:07.691Z,102108.97
2022-08-10T06:18:37.810Z,102108.00
2022-08-10T06:21:10.106Z,102093.22
2022-08-10T06:23:41.428Z,102101.09
2022-08-10T06:26:21.395Z,102082.00
2022-08-10T06:29:24.458Z,102071.59
2022-08-10T06:32:01.110Z,102063.13
2022-08-10T06:34:33.572Z,102052.72
2022-08-10T06:37:05.169Z,102048.41
2022-08-10T06:39:36.212Z,102065.75
2022-08-10T06:42:15.802Z,102097.63
2022-08-10T06:45:02.893Z,102106.41
2022-08-10T06:47:48.145Z,102194.59
2022-08-10T06:50:44.627Z,102313.69
2022-08-10T06:53:17.550Z,102711.50
2022-08-10T06:55:56.558Z,103009.28
2022-08-10T06:58:38.135Z,103132.94
2022-08-10T07:01:15.015Z,103205.44
2022-08-10T07:04:13.026Z,102950.31
2022-08-10T07:06:47.775Z,102839.88
2022-08-10T07:09:18.287Z,102850.44
2022-08-10T07:11:56.545Z,102771.44
2022-08-10T07:14:41.874Z,102745.34
2022-08-10T07:17:39.146Z,102771.19
2022-08-10T07:20:11.140Z,102773.41
2022-08-10T07:23:05.841Z,102700.41
2022-08-10T07:25:53.336Z,102687.31
2022-08-10T07:28:23.958Z,102576.13
2022-08-10T07:30:58.015Z,102607.19
2022-08-10T07:33:31.557Z,102620.56
2022-08-10T07:36:04.608Z,102541.28
2022-08-10T07:38:39.074Z,102500.03
2022-08-10T07:41:10.347Z,101893.03
2022-08-10T07:43:47.636Z,101717.81
2022-08-10T07:46:20.478Z,101596.66
2022-08-10T07:49:18.010Z,101033.03
2022-08-10T07:51:56.362Z,101062.97
2022-08-10T07:54:33.525Z,101431.94
2022-08-10T07:57:31.029Z,101603.59
2022-08-10T08:00:03.263Z,101602.47
2022-08-10T08:02:45.257Z,101581.41
2022-08-10T08:05:29.886Z,101661.38
2022-08-10T08:08:09.650Z,101709.88
2022-08-10T08:10:39.410Z,101897.13
2022-08-10T08:13:08.054Z,101871.53
2022-08-10T08:16:19.657Z,101828.53
2022-08-10T08:18:50.930Z,101777.91
2022-08-10T08:24:30.563Z,101776.22
2022-08-10T08:24:31.860Z,101799.72
2022-08-10T08:27:05.890Z,101796.78
2022-08-10T08:29:37.043Z,101741.16
2022-08-10T08:32:07.760Z,101716.06
2022-08-10T08:34:41.018Z,101716.88
2022-08-10T08:38:31.941Z,101734.00
2022-08-10T08:40:17.684Z,101707.13
2022-08-10T08:43:14.333Z,101690.25
2022-08-10T08:46:20.941Z,101612.09
2022-08-10T08:50:05.279Z,101649.69
2022-08-10T08:52:35.590Z,101626.06
2022-08-10T08:56:02.967Z,101631.91
2022-08-10T08:58:34.160Z,101627.56
2022-08-10T09:01:19.860Z,101533.69
2022-08-10T09:04:21.008Z,101521.41
2022-08-10T09:07:59.538Z,101556.31
2022-08-10T09:10:14.168Z,101580.44
2022-08-10T09:12:51.316Z,101546.25
2022-08-10T09:15:40.205Z,101563.00
2022-08-10T09:18:15.262Z,101506.56
2022-08-10T09:20:49.181Z,101514.78
2022-08-10T09:24:04.628Z,101471.47
2022-08-10T09:26:20.419Z,101515.22
2022-08-10T09:29:11.533Z,101506.81
2022-08-10T09:31:55.869Z,101508.78
2022-08-10T09:36:24.977Z,101445.81
2022-08-10T09:38:02.703Z,101426.19
2022-08-10T09:41:00.305Z,101466.53
2022-08-10T09:43:42.127Z,101447.69
2022-08-10T09:46:21.769Z,101476.63
2022-08-10T09:49:02.481Z,101444.00
2022-08-10T09:51:48.923Z,101432.47
2022-08-10T09:54:28.107Z,101389.31
2022-08-10T09:57:44.831Z,101382.06
2022-08-10T10:00:10.815Z,101406.75
2022-08-10T10:02:49.049Z,101384.47
2022-08-10T10:05:32.252Z,101357.75
2022-08-10T10:08:20.513Z,101382.69
2022-08-10T10:11:09.057Z,101340.56
2022-08-10T10:14:05.152Z,101359.75
2022-08-10T10:17:02.423Z,101359.72
2022-08-10T10:19:56.902Z,101327.50
2022-08-10T10:22:38.075Z,101331.84
2022-08-10T10:25:23.222Z,101316.50
2022-08-10T10:28:22.896Z,101318.41
2022-08-10T10:31:16.444Z,101247.28
2022-08-10T10:34:08.146Z,101241.19
2022-08-10T10:36:49.283Z,101237.44
2022-08-10T10:39:24.211Z,101242.53
2022-08-10T10:42:04.399Z,101225.75
2022-08-10T10:44:42.426Z,101200.13
2022-08-10T10:47:24.330Z,101208.66
2022-08-10T10:50:04.435Z,101166.75
2022-08-10T10:52:44.163Z,101184.28
2022-08-10T10:55:29.450Z,101199.84
2022-08-10T10:58:06.030Z,101160.59
2022-08-10T11:00:40.800Z,101169.97
2022-08-10T11:03:37.553Z,101195.59
2022-08-10T11:06:15.850Z,101177.56
2022-08-10T11:08:53.986Z,101163.13
2022-08-10T11:12:00.431Z,101134.34
2022-08-10T11:14:29.971Z,101163.00
2022-08-10T11:17:03.965Z,101129.81
2022-08-10T11:20:01.307Z,101146.59
2022-08-10T11:22:43.124Z,101144.63
2022-08-10T11:25:16.996Z,101103.44
2022-08-10T11:27:51.046Z,101130.81
2022-08-10T11:30:24.837Z,101122.66
2022-08-10T11:33:30.729Z,101083.38
2022-08-10T11:36:05.104Z,101086.19
2022-08-10T11:39:10.958Z,101061.13
2022-08-10T11:42:10.036Z,101067.72
2022-08-10T11:44:38.151Z,101084.88
2022-08-10T11:47:13.245Z,101048.69
2022-08-10T11:49:50.466Z,101046.56
2022-08-10T11:52:29.743Z,101071.53
2022-08-10T11:55:06.429Z,101034.41
2022-08-10T11:57:54.077Z,101030.97
2022-08-10T12:00:22.933Z,101019.56
2022-08-10T12:02:58.432Z,101030.88
2022-08-10T12:05:51.750Z,101057.28
2022-08-10T12:10:03.727Z,101023.75
2022-08-10T12:11:12.175Z,101017.09
2022-08-10T12:14:17.763Z,100962.38
2022-08-10T12:16:42.719Z,100985.97
2022-08-10T12:19:20.616Z,101021.56
2022-08-10T12:21:55.481Z,100963.66
2022-08-10T12:24:35.036Z,100988.78
2022-08-10T12:27:13.278Z,100932.84
2022-08-10T12:29:47.696Z,100915.06
2022-08-10T12:32:25.445Z,100941.09
2022-08-10T12:35:01.429Z,100981.25
2022-08-10T12:37:39.099Z,100929.78
2022-08-10T12:40:34.460Z,100914.69
2022-08-10T12:44:06.462Z,100924.78
2022-08-10T12:46:14.879Z,100891.34
2022-08-10T12:48:52.099Z,100907.72
2022-08-10T12:51:25.149Z,100913.06
2022-08-10T12:53:58.062Z,100923.28
2022-08-10T12:56:28.076Z,100899.34
2022-08-10T12:59:01.631Z,100924.34
2022-08-10T13:02:10.214Z,100860.16
2022-08-10T13:04:31.727Z,100908.06
2022-08-10T13:07:07.812Z,100891.97
2022-08-10T13:09:54.846Z,100848.81
2022-08-10T13:12:36.853Z,100863.50
2022-08-10T13:15:45.661Z,100821.66
2022-08-10T13:18:18.290Z,100816.03
2022-08-10T13:20:51.829Z,100851.19
2022-08-10T13:23:24.778Z,100776.75
2022-08-10T13:25:56.156Z,100844.66
2022-08-10T13:28:36.510Z,100818.50
2022-08-10T13:31:16.219Z,100845.84
2022-08-10T13:34:40.732Z,100846.97
2022-08-10T13:36:41.073Z,100838.25
2022-08-10T13:39:10.530Z,100847.28
2022-08-10T13:41:41.957Z,100843.03
2022-08-10T13:44:12.790Z,100784.97
2022-08-10T13:46:52.320Z,100798.31
2022-08-10T13:49:22.296Z,100780.75
2022-08-10T13:51:57.132Z,100808.44
2022-08-10T13:54:28.310Z,100775.03
2022-08-10T13:56:57.815Z,100754.47
2022-08-10T14:00:33.660Z,100728.50
2022-08-10T14:02:28.055Z,100749.81
2022-08-10T14:05:01.014Z,100754.53
2022-08-10T14:07:30.376Z,100762.16
2022-08-10T14:10:07.312Z,100757.47
2022-08-10T14:12:38.461Z,100748.63
2022-08-10T14:15:09.638Z,100736.75
2022-08-10T14:17:45.049Z,100747.16
2022-08-10T14:20:20.836Z,100725.38
2022-08-10T14:22:52.481Z,100750.63
2022-08-10T14:25:20.704Z,100615.47
2022-08-10T14:28:02.801Z,100725.78
2022-08-10T14:30:35.850Z,100678.81
2022-08-10T14:33:16.857Z,100696.78
2022-08-10T14:36:19.978Z,100680.50
2022-08-10T14:38:44.479Z,100689.16
2022-08-10T14:42:01.046Z,100649.25
2022-08-10T14:44:07.756Z,100744.16
2022-08-10T14:46:43.847Z,100719.94
2022-08-10T14:49:26.349Z,100716.53
2022-08-10T14:52:01.652Z,100693.81
2022-08-10T14:54:32.316Z,100729.47
2022-08-10T14:57:12.081Z,100693.78
2022-08-10T15:00:24.559Z,100672.94
2022-08-10T15:02:55.816Z,100678.72
2022-08-10T15:05:39.800Z,100669.56
2022-08-10T15:08:12.713Z,100615.03
2022-08-10T15:10:41.542Z,100633.34
2022-08-10T15:13:34.457Z,100643.38
2022-08-10T15:16:13.846Z,100632.34
2022-08-10T15:18:58.026Z,100652.38
2022-08-10T15:21:42.504Z,100599.34
2022-08-10T15:24:27.003Z,100631.03
2022-08-10T15:26:57.942Z,100641.09
2022-08-10T15:29:28.141Z,100615.81
2022-08-10T15:32:14.116Z,100598.31
2022-08-10T15:35:02.744Z,100628.81
2022-08-10T15:37:40.252Z,100629.84
2022-08-10T15:40:24.116Z,100596.56
2022-08-10T15:43:00.807Z,100584.28
2022-08-10T15:45:29.414Z,100574.03
2022-08-10T15:48:07.004Z,100609.91
2022-08-10T15:50:41.026Z,100638.63
2022-08-10T15:53:31.337Z,100582.47
2022-08-10T15:56:06.510Z,100583.75
2022-08-10T15:58:40.704Z,100592.13
2022-08-10T16:02:15.006Z,100603.31
2022-08-10T16:04:08.597Z,100574.00
2022-08-10T16:06:41.465Z,100552.03
2022-08-10T16:10:22.650Z,100511.00
2022-08-10T16:12:13.912Z,100552.91
2022-08-10T16:14:46.169Z,100592.84
2022-08-10T16:17:16.255Z,100590.03
2022-08-10T16:19:49.715Z,100582.03
2022-08-10T16:22:35.209Z,100635.25
2022-08-10T16:25:13.193Z,100612.06
2022-08-10T16:27:44.112Z,100563.84
2022-08-10T16:30:14.094Z,100615.38
2022-08-10T16:32:43.322Z,100623.97
2022-08-10T16:35:18.892Z,100611.31
2022-08-10T16:37:57.603Z,100615.34
2022-08-10T16:40:30.332Z,100557.41
2022-08-10T16:43:01.182Z,100588.22
2022-08-10T16:45:38.028Z,100566.91
2022-08-10T16:48:09.502Z,100659.78
2022-08-10T16:50:53.605Z,100681.53
2022-08-10T16:53:23.345Z,100675.34
2022-08-10T16:55:55.882Z,100698.88
2022-08-10T16:58:27.529Z,100660.88
2022-08-10T17:01:02.268Z,100648.66
2022-08-10T17:04:06.154Z,100641.69
2022-08-10T17:06:30.274Z,100676.59
2022-08-10T17:09:02.005Z,100745.72
2022-08-10T17:11:37.229Z,100739.53
2022-08-10T17:14:09.618Z,100731.69
2022-08-10T17:16:40.767Z,100763.78
2022-08-10T17:19:21.378Z,100786.47
2022-08-10T17:21:52.959Z,100779.03
2022-08-10T17:24:25.229Z,100791.41
2022-08-10T17:26:58.236Z,100790.38
2022-08-10T17:29:58.447Z,100793.78
2022-08-10T17:32:29.089Z,100794.50
2022-08-10T17:35:01.878Z,100827.50
2022-08-10T17:37:34.537Z,100766.38
2022-08-10T17:40:09.773Z,100764.06
2022-08-10T17:42:42.735Z,100782.06
2022-08-10T17:45:20.831Z,100795.50
2022-08-10T17:48:09.502Z,100799.06
2022-08-10T17:50:42.422Z,100805.56
2022-08-10T17:53:16.824Z,100846.97
2022-08-10T17:55:49.623Z,100802.78
2022-08-10T17:58:25.151Z,100807.94
2022-08-10T18:00:57.499Z,100811.13
2022-08-10T18:03:54.522Z,100819.97
2022-08-10T18:06:24.289Z,100817.88
2022-08-10T18:08:57.919Z,100831.34
2022-08-10T18:11:31.367Z,100824.38
2022-08-10T18:14:06.917Z,100853.03
2022-08-10T18:16:41.704Z,100859.06
2022-08-10T18:19:13.532Z,100851.72
2022-08-10T18:21:46.508Z,100817.25
2022-08-10T18:24:21.150Z,101006.22
2022-08-10T18:26:58.012Z,101220.50
2022-08-10T18:29:31.473Z,101307.69
2022-08-10T18:32:02.851Z,101332.50
2022-08-10T18:34:32.730Z,101500.69
2022-08-10T18:37:02.553Z,101563.06
2022-08-10T18:39:36.883Z,101565.06
2022-08-10T18:42:10.481Z,101601.34
2022-08-10T18:44:46.344Z,101624.34
2022-08-10T18:47:17.283Z,101720.09
2022-08-10T18:49:59.631Z,101685.53
2022-08-10T18:52:31.520Z,101830.72
2022-08-10T18:55:14.121Z,101882.84
2022-08-10T18:57:59.352Z,101898.13
2022-08-10T19:00:38.343Z,101957.16
2022-08-10T19:03:39.943Z,101951.97
2022-08-10T19:06:47.906Z,101941.59
2022-08-10T19:09:47.641Z,102004.59
2022-08-10T19:12:42.804Z,102011.84
2022-08-10T19:15:21.802Z,102067.06
2022-08-10T19:18:07.350Z,101885.47
2022-08-10T19:20:49.812Z,101791.56
2022-08-10T19:23:34.731Z,101695.56
2022-08-10T19:26:40.810Z,101658.41
2022-08-10T19:29:14.339Z,101757.13
2022-08-10T19:32:07.778Z,101854.88
2022-08-10T19:34:51.387Z,101999.38
2022-08-10T19:37:32.460Z,102182.28
2022-08-10T19:40:12.438Z,102346.50
2022-08-10T19:42:54.734Z,102466.56
2022-08-10T19:46:01.495Z,102466.56
2022-08-10T19:48:40.450Z,102469.78
2022-08-10T19:51:31.121Z,102493.66
2022-08-10T19:54:07.342Z,102483.34
2022-08-10T19:56:45.218Z,102454.22
2022-08-10T20:00:02.095Z,102418.38
2022-08-10T20:02:24.662Z,102356.09
2022-08-10T20:05:13.901Z,102375.66
2022-08-10T20:07:57.302Z,102358.53
2022-08-10T20:10:29.776Z,102347.81
2022-08-10T20:13:10.841Z,102322.41
2022-08-10T20:15:48.711Z,102310.81
2022-08-10T20:18:24.639Z,102327.78
2022-08-10T20:21:00.827Z,102315.34
2022-08-10T20:23:38.565Z,102323.22
2022-08-10T20:26:15.554Z,102336.66
2022-08-10T20:28:57.453Z,102310.81
2022-08-10T20:31:35.089Z,102323.16
2022-08-10T20:34:27.262Z,102306.84
2022-08-10T20:37:41.118Z,102306.22
2022-08-10T20:40:33.757Z,102299.66
2022-08-10T20:43:13.708Z,102321.56
2022-08-10T20:46:07.548Z,102336.03
2022-08-10T20:48:45.634Z,102312.31
2022-08-10T20:51:18.063Z,102320.63
2022-08-10T20:53:56.209Z,102302.75
2022-08-10T20:56:40.536Z,102305.03
2022-08-10T20:59:40.105Z,102294.28
2022-08-10T21:02:49.884Z,102313.56
2022-08-10T21:08:50.177Z,102316.03
2022-08-10T21:11:59.842Z,102322.16
2022-08-10T21:15:01.297Z,102308.03
2022-08-10T21:18:08.370Z,102283.28
2022-08-10T21:20:48.004Z,102272.38
2022-08-10T21:23:30.598Z,102307.78
2022-08-10T21:26:14.391Z,102307.06
2022-08-10T21:32:32.637Z,102273.09
2022-08-10T21:35:20.170Z,102267.63
2022-08-10T21:38:08.057Z,102249.66
2022-08-10T21:41:57.677Z,102245.38
2022-08-10T21:45:59.632Z,102240.81
2022-08-10T21:52:53.818Z,102177.44
2022-08-10T21:56:20.559Z,102174.16
2022-08-10T22:03:27.645Z,102188.69
2022-08-10T22:18:01.243Z,102107.44
2022-08-10T22:21:20.541Z,102131.81
2022-08-10T22:24:33.111Z,102119.94
2022-08-10T22:27:50.635Z,102121.41
2022-08-10T22:30:37.108Z,102106.47
2022-08-10T22:33:42.367Z,102121.66
2022-08-10T22:36:58.051Z,102117.38
2022-08-10T22:40:12.023Z,102109.06
2022-08-10T22:43:15.524Z,102098.59
2022-08-10T22:46:33.026Z,102081.41
2022-08-10T22:49:02.633Z,102082.94
2022-08-10T22:51:44.586Z,102058.31
2022-08-10T22:54:39.647Z,102087.50
2022-08-10T22:57:38.702Z,102049.56
2022-08-10T23:00:30.943Z,102080.25
2022-08-10T23:03:07.970Z,102078.16
2022-08-10T23:05:40.220Z,102066.00
2022-08-10T23:08:29.777Z,102072.94
2022-08-10T23:11:04.353Z,102041.34
2022-08-10T23:13:36.936Z,102062.16
2022-08-10T23:16:32.207Z,102052.19
2022-08-10T23:19:10.421Z,102070.44
2022-08-10T23:22:04.674Z,102052.56
2022-08-10T23:24:43.169Z,102041.00
2022-08-10T23:27:38.519Z,101998.69
2022-08-10T23:30:10.215Z,102009.91
2022-08-10T23:32:44.062Z,102008.84
2022-08-10T23:36:12.974Z,102024.34
2022-08-10T23:38:07.155Z,101984.59
2022-08-10T23:40:38.136Z,102004.75
2022-08-10T23:43:07.997Z,101999.94
2022-08-10T23:45:54.444Z,101978.31
2022-08-10T23:48:27.783Z,101967.97
2022-08-10T23:51:23.299Z,101979.88
2022-08-10T23:54:10.940Z,101978.06
2022-08-10T23:56:44.732Z,101970.19
2022-08-10T23:59:40.124Z,101988.16
